createdAt,value
2022-08-14T00:00:14.001Z,4.23
2022-08-14T00:02:45.884Z,4.47
2022-08-14T00:05:18.630Z,4.37
2022-08-14T00:07:48.224Z,5.03
2022-08-14T00:10:51.799Z,4.57
2022-08-14T00:13:13.534Z,4.37
2022-08-14T00:15:48.071Z,4.40
2022-08-14T00:18:30.905Z,4.60
2022-08-14T00:21:11.785Z,4.83
2022-08-14T00:23:40.911Z,4.60
2022-08-14T00:26:23.121Z,4.80
2022-08-14T00:28:53.293Z,4.30
2022-08-14T00:31:35.175Z,4.73
2022-08-14T00:34:35.435Z,4.20
2022-08-14T00:37:02.570Z,5.03
2022-08-14T00:39:32.335Z,5.20
2022-08-14T00:42:02.271Z,4.60
2022-08-14T00:44:33.329Z,4.57
2022-08-14T00:47:03.670Z,4.70
2022-08-14T00:49:37.933Z,5.03
2022-08-14T00:52:13.914Z,4.47
2022-08-14T00:54:44.653Z,4.60
2022-08-14T00:57:14.981Z,5.10
2022-08-14T00:59:44.133Z,4.80
2022-08-14T01:02:15.186Z,4.27
2022-08-14T01:04:53.516Z,4.30
2022-08-14T01:07:24.881Z,5.00
2022-08-14T01:09:58.792Z,4.90
2022-08-14T01:12:29.999Z,5.00
2022-08-14T01:15:02.129Z,4.73
2022-08-14T01:17:49.282Z,5.20
2022-08-14T01:20:40.482Z,4.00
2022-08-14T01:23:16.797Z,5.00
2022-08-14T01:25:51.463Z,5.57
2022-08-14T01:28:34.493Z,5.07
2022-08-14T01:31:14.280Z,5.60
2022-08-14T01:34:00.016Z,6.87
2022-08-14T01:36:39.262Z,5.83
2022-08-14T01:39:13.244Z,5.90
2022-08-14T01:41:44.654Z,5.93
2022-08-14T01:44:32.281Z,5.40
2022-08-14T01:47:21.353Z,5.10
2022-08-14T01:49:59.778Z,5.80
2022-08-14T01:52:59.400Z,5.83
2022-08-14T01:55:32.572Z,5.17
2022-08-14T01:58:19.870Z,5.03
2022-08-14T02:00:54.791Z,5.30
2022-08-14T02:03:29.925Z,5.07
2022-08-14T02:06:03.963Z,5.47
2022-08-14T02:08:53.014Z,5.80
2022-08-14T02:11:26.701Z,5.70
2022-08-14T02:14:07.262Z,5.43
2022-08-14T02:16:40.412Z,5.60
2022-08-14T02:19:13.483Z,6.17
2022-08-14T02:21:48.871Z,5.60
2022-08-14T02:24:40.232Z,5.83
2022-08-14T02:28:24.027Z,5.30
2022-08-14T02:30:02.781Z,6.10
2022-08-14T02:32:36.831Z,5.70
2022-08-14T02:35:18.598Z,5.63
2022-08-14T02:37:49.359Z,5.30
2022-08-14T02:40:19.607Z,6.10
2022-08-14T02:42:54.070Z,5.30
2022-08-14T02:45:24.643Z,4.97
2022-08-14T02:47:57.428Z,5.53
2022-08-14T02:50:27.171Z,5.40
2022-08-14T02:53:03.267Z,5.30
2022-08-14T02:55:33.262Z,5.73
2022-08-14T02:58:05.810Z,5.60
2022-08-14T03:00:40.161Z,4.50
2022-08-14T03:03:09.764Z,5.00
2022-08-14T03:05:41.325Z,5.30
2022-08-14T03:08:15.204Z,5.40
2022-08-14T03:10:50.175Z,5.63
2022-08-14T03:13:21.923Z,5.30
2022-08-14T03:15:56.024Z,5.80
2022-08-14T03:18:31.772Z,5.60
2022-08-14T03:21:05.813Z,5.73
2022-08-14T03:23:38.161Z,5.17
2022-08-14T03:26:12.895Z,5.30
2022-08-14T03:28:51.287Z,5.67
2022-08-14T03:31:22.471Z,5.23
2022-08-14T03:33:55.909Z,5.60
2022-08-14T03:37:51.952Z,5.40
2022-08-14T03:39:22.486Z,5.20
2022-08-14T03:41:55.968Z,5.30
2022-08-14T03:45:27.317Z,5.73
2022-08-14T03:47:21.366Z,6.10
2022-08-14T03:49:50.457Z,5.13
2022-08-14T03:52:38.101Z,5.00
2022-08-14T03:55:11.959Z,5.63
2022-08-14T03:57:42.667Z,5.50
2022-08-14T04:00:40.702Z,5.80
2022-08-14T04:03:05.785Z,5.80
2022-08-14T04:05:43.101Z,6.07
2022-08-14T04:08:29.175Z,6.07
2022-08-14T04:11:01.858Z,5.10
2022-08-14T04:13:34.001Z,5.40
2022-08-14T04:16:06.848Z,5.30
2022-08-14T04:18:42.504Z,5.63
2022-08-14T04:21:12.390Z,4.77
2022-08-14T04:23:42.929Z,5.17
2022-08-14T04:26:14.756Z,5.97
2022-08-14T04:29:06.998Z,5.70
2022-08-14T04:32:57.682Z,5.40
2022-08-14T04:34:35.084Z,6.40
2022-08-14T04:37:25.365Z,6.80
2022-08-14T04:40:13.315Z,5.53
2022-08-14T04:43:01.632Z,6.63
2022-08-14T04:45:38.654Z,6.00
2022-08-14T04:48:13.798Z,6.00
2022-08-14T04:51:03.884Z,5.67
2022-08-14T04:53:35.642Z,6.13
2022-08-14T04:56:10.756Z,6.03
2022-08-14T04:58:57.940Z,6.30
2022-08-14T05:01:33.971Z,6.17
2022-08-14T05:04:14.685Z,5.90
2022-08-14T05:06:45.557Z,5.40
2022-08-14T05:09:18.170Z,6.30
2022-08-14T05:11:51.601Z,5.50
2022-08-14T05:14:46.399Z,6.67
2022-08-14T05:17:11.965Z,6.60
2022-08-14T05:19:44.662Z,6.13
2022-08-14T05:22:31.596Z,6.93
2022-08-14T05:25:01.648Z,5.90
2022-08-14T05:27:31.295Z,5.57
2022-08-14T05:30:05.479Z,6.57
2022-08-14T05:32:34.737Z,6.30
2022-08-14T05:35:11.387Z,6.30
2022-08-14T05:37:46.118Z,6.60
2022-08-14T05:40:15.492Z,7.10
2022-08-14T05:42:46.525Z,6.77
2022-08-14T05:45:21.999Z,6.10
2022-08-14T05:47:54.255Z,6.40
2022-08-14T05:50:24.706Z,5.80
2022-08-14T05:52:58.795Z,6.33
2022-08-14T05:55:28.007Z,7.33
2022-08-14T05:58:00.275Z,6.33
2022-08-14T06:00:37.186Z,5.50
2022-08-14T06:03:10.084Z,6.33
2022-08-14T06:05:40.914Z,6.43
2022-08-14T06:08:31.244Z,7.40
2022-08-14T06:11:08.041Z,7.23
2022-08-14T06:13:45.293Z,6.43
2022-08-14T06:16:18.856Z,7.00
2022-08-14T06:18:51.773Z,7.60
2022-08-14T06:21:24.060Z,6.90
2022-08-14T06:23:53.335Z,8.17
2022-08-14T06:26:22.876Z,6.50
2022-08-14T06:28:59.989Z,6.13
2022-08-14T06:31:29.265Z,6.97
2022-08-14T06:35:11.123Z,6.77
2022-08-14T06:36:53.622Z,7.03
2022-08-14T06:39:37.394Z,6.60
2022-08-14T06:42:18.425Z,6.90
2022-08-14T06:45:02.223Z,6.57
2022-08-14T06:47:34.884Z,6.17
2022-08-14T06:50:04.962Z,6.07
2022-08-14T06:52:39.549Z,6.10
2022-08-14T06:55:21.686Z,7.03
2022-08-14T06:57:55.106Z,6.87
2022-08-14T07:00:33.838Z,6.10
2022-08-14T07:03:28.737Z,6.93
2022-08-14T07:06:11.647Z,5.93
2022-08-14T07:09:00.757Z,6.33
2022-08-14T07:11:33.583Z,5.77
2022-08-14T07:14:10.230Z,6.50
2022-08-14T07:16:45.808Z,6.80
2022-08-14T07:19:27.655Z,6.50
2022-08-14T07:21:59.992Z,6.30
2022-08-14T07:24:51.130Z,6.43
2022-08-14T07:27:25.115Z,6.67
2022-08-14T07:30:34.566Z,6.20
2022-08-14T07:33:14.751Z,5.57
2022-08-14T07:36:27.449Z,5.90
2022-08-14T07:39:12.174Z,6.27
2022-08-14T07:42:03.529Z,6.03
2022-08-14T07:44:50.612Z,5.90
2022-08-14T07:47:30.996Z,6.03
2022-08-14T07:50:08.835Z,5.70
2022-08-14T07:53:10.915Z,5.70
2022-08-14T07:56:00.408Z,5.83
2022-08-14T07:58:52.638Z,5.90
2022-08-14T08:01:51.461Z,6.73
2022-08-14T08:04:49.398Z,5.60
2022-08-14T08:07:33.094Z,5.50
2022-08-14T08:11:02.294Z,6.23
2022-08-14T08:13:29.323Z,5.40
2022-08-14T08:15:59.990Z,5.83
2022-08-14T08:18:31.055Z,5.40
2022-08-14T08:21:00.691Z,6.30
2022-08-14T08:23:40.867Z,5.33
2022-08-14T08:26:12.574Z,6.30
2022-08-14T08:28:43.923Z,5.90
2022-08-14T08:31:14.937Z,5.30
2022-08-14T08:33:48.135Z,5.07
2022-08-14T08:36:19.245Z,6.10
2022-08-14T08:39:17.743Z,5.63
2022-08-14T08:41:45.355Z,5.70
2022-08-14T08:44:31.602Z,5.97
2022-08-14T08:47:07.702Z,6.27
2022-08-14T08:49:43.147Z,5.57
2022-08-14T08:52:25.165Z,6.10
2022-08-14T08:54:58.716Z,5.83
2022-08-14T08:57:27.905Z,6.03
2022-08-14T08:59:58.950Z,5.97
2022-08-14T09:02:29.680Z,5.60
2022-08-14T09:05:03.459Z,6.13
2022-08-14T09:07:32.638Z,5.80
2022-08-14T09:10:02.637Z,5.60
2022-08-14T09:12:35.190Z,5.70
2022-08-14T09:15:11.306Z,6.30
2022-08-14T09:17:43.654Z,6.37
2022-08-14T09:20:14.061Z,5.50
2022-08-14T09:22:55.936Z,5.80
2022-08-14T09:26:01.197Z,5.40
2022-08-14T09:28:15.538Z,5.57
2022-08-14T09:30:50.151Z,5.40
2022-08-14T09:33:56.056Z,6.43
2022-08-14T09:37:04.306Z,5.80
2022-08-14T09:39:51.085Z,5.30
2022-08-14T09:42:50.212Z,5.40
2022-08-14T09:45:23.846Z,4.83
2022-08-14T09:47:55.375Z,5.33
2022-08-14T09:50:29.792Z,4.63
2022-08-14T09:53:02.718Z,5.07
2022-08-14T09:55:42.456Z,4.87
2022-08-14T09:58:19.987Z,4.53
2022-08-14T10:00:55.401Z,4.90
2022-08-14T10:03:30.369Z,4.30
2022-08-14T10:06:09.871Z,4.63
2022-08-14T10:08:44.584Z,4.63
2022-08-14T10:11:23.625Z,4.40
2022-08-14T10:13:56.079Z,4.40
2022-08-14T10:16:33.018Z,5.67
2022-08-14T10:19:07.223Z,4.83
2022-08-14T10:21:58.793Z,4.57
2022-08-14T10:24:36.612Z,4.73
2022-08-14T10:27:17.044Z,4.90
2022-08-14T10:29:50.285Z,5.47
2022-08-14T10:32:28.584Z,5.10
2022-08-14T10:35:13.545Z,4.30
2022-08-14T10:37:48.527Z,4.50
2022-08-14T10:40:38.239Z,4.70
2022-08-14T10:43:22.980Z,4.60
2022-08-14T10:46:21.557Z,5.00
2022-08-14T10:49:00.129Z,5.03
2022-08-14T10:51:34.191Z,4.93
2022-08-14T10:54:16.391Z,4.97
2022-08-14T10:56:59.450Z,4.57
2022-08-14T10:59:30.985Z,5.30
2022-08-14T11:02:05.494Z,5.23
2022-08-14T11:04:35.638Z,4.70
2022-08-14T11:07:19.307Z,5.00
2022-08-14T11:09:57.434Z,5.53
2022-08-14T11:12:34.393Z,5.00
2022-08-14T11:15:10.827Z,5.73
2022-08-14T11:17:39.964Z,5.37
2022-08-14T11:20:17.435Z,5.30
2022-08-14T11:22:56.233Z,5.13
2022-08-14T11:25:43.949Z,5.33
2022-08-14T11:28:48.117Z,5.00
2022-08-14T11:31:14.895Z,4.70
2022-08-14T11:33:48.935Z,5.10
2022-08-14T11:36:18.948Z,5.30
2022-08-14T11:38:48.208Z,4.93
2022-08-14T11:41:18.630Z,5.40
2022-08-14T11:43:56.016Z,5.03
2022-08-14T11:46:30.229Z,4.70
2022-08-14T11:49:06.978Z,5.33
2022-08-14T11:51:53.128Z,4.60
2022-08-14T11:54:33.736Z,4.73
2022-08-14T11:57:05.916Z,4.53
2022-08-14T11:59:34.990Z,5.70
2022-08-14T12:03:00.601Z,4.00
2022-08-14T12:05:04.184Z,4.90
2022-08-14T12:07:35.708Z,4.93
2022-08-14T12:10:26.545Z,4.63
2022-08-14T12:12:56.902Z,5.37
2022-08-14T12:15:34.095Z,4.83
2022-08-14T12:18:19.760Z,5.03
2022-08-14T12:20:54.511Z,4.73
2022-08-14T12:23:29.054Z,5.03
2022-08-14T12:26:39.545Z,4.33
2022-08-14T12:29:08.519Z,4.53
2022-08-14T12:31:44.428Z,4.30
2022-08-14T12:34:20.591Z,5.13
2022-08-14T12:37:04.027Z,4.90
2022-08-14T12:39:40.402Z,5.00
2022-08-14T12:42:11.644Z,4.83
2022-08-14T12:45:00.146Z,4.87
2022-08-14T12:47:33.309Z,5.27
2022-08-14T12:50:03.785Z,3.90
2022-08-14T12:52:47.290Z,4.80
2022-08-14T12:55:32.508Z,4.30
2022-08-14T12:58:34.999Z,6.10
2022-08-14T13:01:16.780Z,5.00
2022-08-14T13:03:48.041Z,4.60
2022-08-14T13:06:24.397Z,4.37
2022-08-14T13:08:53.827Z,4.50
2022-08-14T13:11:37.620Z,4.43
2022-08-14T13:14:17.492Z,4.80
2022-08-14T13:16:50.364Z,4.50
2022-08-14T13:19:20.682Z,5.43
2022-08-14T13:22:04.908Z,4.27
2022-08-14T13:24:35.714Z,3.83
2022-08-14T13:27:06.143Z,4.77
2022-08-14T13:29:46.680Z,4.37
2022-08-14T13:32:18.692Z,4.30
2022-08-14T13:34:52.690Z,4.67
2022-08-14T13:37:22.848Z,3.80
2022-08-14T13:39:57.402Z,4.60
2022-08-14T13:42:30.871Z,4.63
2022-08-14T13:45:02.326Z,4.13
2022-08-14T13:47:33.128Z,4.77
2022-08-14T13:50:06.254Z,4.00
2022-08-14T13:52:51.321Z,4.30
2022-08-14T13:55:24.008Z,4.30
2022-08-14T13:58:03.734Z,4.70
2022-08-14T14:00:53.241Z,4.77
2022-08-14T14:03:30.163Z,4.40
2022-08-14T14:06:03.269Z,4.17
2022-08-14T14:08:46.658Z,4.13
2022-08-14T14:11:19.583Z,4.30
2022-08-14T14:13:49.503Z,4.37
2022-08-14T14:16:25.956Z,4.03
2022-08-14T14:19:04.709Z,4.77
2022-08-14T14:21:36.089Z,4.30
2022-08-14T14:24:06.506Z,4.60
2022-08-14T14:26:38.912Z,3.90
2022-08-14T14:29:09.122Z,3.83
2022-08-14T14:31:40.573Z,4.90
2022-08-14T14:34:29.513Z,3.83
2022-08-14T14:37:03.132Z,4.50
2022-08-14T14:39:35.293Z,3.73
2022-08-14T14:42:13.809Z,3.83
2022-08-14T14:44:53.040Z,3.90
2022-08-14T14:47:26.908Z,4.10
2022-08-14T14:49:58.248Z,4.23
2022-08-14T14:52:28.815Z,3.80
2022-08-14T14:54:59.040Z,3.73
2022-08-14T14:57:35.751Z,3.50
2022-08-14T15:00:12.653Z,4.00
2022-08-14T15:02:44.802Z,3.77
2022-08-14T15:05:17.276Z,4.07
2022-08-14T15:07:51.150Z,4.30
2022-08-14T15:10:26.694Z,4.07
2022-08-14T15:13:04.517Z,4.00
2022-08-14T15:15:36.803Z,3.47
2022-08-14T15:18:36.772Z,4.10
2022-08-14T15:21:01.040Z,3.73
2022-08-14T15:23:43.669Z,3.70
2022-08-14T15:26:23.916Z,3.73
2022-08-14T15:29:02.878Z,3.37
2022-08-14T15:31:34.960Z,2.90
2022-08-14T15:34:40.788Z,3.20
2022-08-14T15:37:03.386Z,3.30
2022-08-14T15:39:34.073Z,4.00
2022-08-14T15:42:14.242Z,3.40
2022-08-14T15:44:58.329Z,3.97
2022-08-14T15:47:32.255Z,3.80
2022-08-14T15:50:03.068Z,3.87
2022-08-14T15:52:37.496Z,3.80
2022-08-14T15:55:09.813Z,3.70
2022-08-14T15:58:01.981Z,3.43
2022-08-14T16:00:50.206Z,3.40
2022-08-14T16:03:27.778Z,3.07
2022-08-14T16:06:05.945Z,3.33
2022-08-14T16:08:42.288Z,3.07
2022-08-14T16:11:12.660Z,3.93
2022-08-14T16:13:44.265Z,3.53
2022-08-14T16:16:48.143Z,3.30
2022-08-14T16:19:09.761Z,4.13
2022-08-14T16:22:01.769Z,3.67
2022-08-14T16:24:36.014Z,3.37
2022-08-14T16:27:39.678Z,3.70
2022-08-14T16:30:24.814Z,3.53
2022-08-14T16:32:59.034Z,3.13
2022-08-14T16:35:42.354Z,3.30
2022-08-14T16:40:25.543Z,3.40
2022-08-14T16:41:23.078Z,4.57
2022-08-14T16:43:59.253Z,3.30
2022-08-14T16:46:32.621Z,3.40
2022-08-14T16:49:03.082Z,3.50
2022-08-14T16:51:34.979Z,3.23
2022-08-14T16:54:20.748Z,3.40
2022-08-14T16:57:16.029Z,3.73
2022-08-14T16:59:52.597Z,3.10
2022-08-14T17:02:37.735Z,3.10
2022-08-14T17:05:21.530Z,3.80
2022-08-14T17:08:32.311Z,3.90
2022-08-14T17:11:11.116Z,3.47
2022-08-14T17:13:58.677Z,3.50
2022-08-14T17:16:37.004Z,3.10
2022-08-14T17:19:13.519Z,2.93
2022-08-14T17:21:46.662Z,2.80
2022-08-14T17:24:58.316Z,3.30
2022-08-14T17:27:08.364Z,3.40
2022-08-14T17:29:44.513Z,3.33
2022-08-14T17:32:29.409Z,3.07
2022-08-14T17:35:16.784Z,3.20
2022-08-14T17:37:55.613Z,3.50
2022-08-14T17:40:31.129Z,2.93
2022-08-14T17:43:02.538Z,3.57
2022-08-14T17:45:48.475Z,2.80
2022-08-14T17:49:10.558Z,3.00
2022-08-14T17:51:29.894Z,3.23
2022-08-14T17:54:02.720Z,2.90
2022-08-14T17:56:33.988Z,3.03
2022-08-14T17:59:06.161Z,3.00
2022-08-14T18:01:45.998Z,3.50
2022-08-14T18:04:27.855Z,3.43
2022-08-14T18:07:09.264Z,3.50
2022-08-14T18:09:57.121Z,3.50
2022-08-14T18:12:36.469Z,4.03
2022-08-14T18:15:15.893Z,3.50
2022-08-14T18:17:54.249Z,3.70
2022-08-14T18:21:41.537Z,3.47
2022-08-14T18:23:54.148Z,3.30
2022-08-14T18:26:38.655Z,3.47
